Time;durP1;ratioP1;P1;durP2;ratioP2;P2;SDS_P1;SDS_P2;PMS_P1;PMS_P2;Temp;Humidity;BMP_temperature;BMP_pressure;BME280_temperature;BME280_humidity;BME280_pressure;Samples;Min_cycle;Max_cycle;Signal;HPM_P1;HPM_P2
2023/05/15 00:01:07;;;;;;;12.88;8.73;;;;;;;;;;10214828;28;20046;-70
2023/05/15 00:06:04;;;;;;;9.80;7.97;;;;;;;;;;10204420;28;20041;-71
2023/05/15 00:11:00;;;;;;;11.13;8.50;;;;;;;;;;10181132;28;20078;-70
2023/05/15 00:15:57;;;;;;;11.10;8.75;;;;;;;;;;10202914;28;20045;-70
2023/05/15 00:20:53;;;;;;;10.60;8.85;;;;;;;;;;10161935;28;20133;-71
2023/05/15 00:25:50;;;;;;;10.57;8.63;;;;;;;;;;10153738;28;20074;-70
2023/05/15 00:30:46;;;;;;;9.40;8.40;;;;;;;;;;10155139;28;20464;-71
2023/05/15 00:35:42;;;;;;;10.13;8.50;;;;;;;;;;10159562;28;20068;-71
2023/05/15 00:40:40;;;;;;;9.25;8.35;;;;;;;;;;10154976;28;20133;-70
2023/05/15 00:45:37;;;;;;;13.32;8.93;;;;;;;;;;10194756;28;20045;-70
2023/05/15 00:50:34;;;;;;;9.57;8.40;;;;;;;;;;10233958;28;20140;-70
2023/05/15 00:55:32;;;;;;;10.10;9.10;;;;;;;;;;10203087;28;20503;-70
2023/05/15 01:00:30;;;;;;;9.55;8.55;;;;;;;;;;10225899;28;20646;-70
2023/05/15 01:05:26;;;;;;;10.02;8.48;;;;;;;;;;11237342;23;20349;-73
2023/05/15 01:10:23;;;;;;;14.73;9.48;;;;;;;;;;10238732;28;20091;-73
2023/05/15 01:15:19;;;;;;;10.10;9.05;;;;;;;;;;10230555;28;20107;-73
2023/05/15 01:20:17;;;;;;;10.43;9.10;;;;;;;;;;10230679;28;20099;-73
2023/05/15 01:25:33;;;;;;;11.75;8.98;;;;;;;;;;10221428;28;20041;-73
2023/05/15 01:30:33;;;;;;;11.15;9.30;;;;;;;;;;10223626;28;20045;-73
2023/05/15 01:35:48;;;;;;;10.20;9.02;;;;;;;;;;10232855;28;20053;-73
2023/05/15 01:40:46;;;;;;;11.07;9.20;;;;;;;;;;10213253;28;20579;-73
2023/05/15 01:45:43;;;;;;;11.50;9.18;;;;;;;;;;10235017;28;20049;-73
2023/05/15 01:50:40;;;;;;;12.15;10.43;;;;;;;;;;10202955;28;20080;-73
2023/05/15 01:55:37;;;;;;;12.65;9.82;;;;;;;;;;10215495;28;20041;-73
2023/05/15 02:00:34;;;;;;;11.38;10.18;;;;;;;;;;10191952;28;20435;-73
2023/05/15 02:05:31;;;;;;;12.13;8.88;;;;;;;;;;10236260;28;20056;-73
2023/05/15 02:10:28;;;;;;;11.60;9.55;;;;;;;;;;10281260;28;20045;-73
2023/05/15 02:15:25;;;;;;;11.75;10.32;;;;;;;;;;10247202;28;20064;-73
2023/05/15 02:20:21;;;;;;;14.52;10.30;;;;;;;;;;10274933;28;20081;-73
2023/05/15 02:25:19;;;;;;;11.82;10.10;;;;;;;;;;10234240;28;20188;-73
2023/05/15 02:30:48;;;;;;;12.05;10.20;;;;;;;;;;10269588;28;20045;-73
2023/05/15 02:35:54;;;;;;;10.80;9.70;;;;;;;;;;10240707;28;20065;-73
2023/05/15 02:40:51;;;;;;;10.20;9.02;;;;;;;;;;10239469;28;20054;-73
2023/05/15 02:45:48;;;;;;;11.43;10.18;;;;;;;;;;10244098;28;20041;-73
2023/05/15 02:50:44;;;;;;;11.57;10.20;;;;;;;;;;10224368;28;20133;-73
2023/05/15 02:55:43;;;;;;;10.88;9.70;;;;;;;;;;10242173;28;20095;-73
2023/05/15 03:00:39;;;;;;;13.80;11.02;;;;;;;;;;10224629;28;20687;-73
2023/05/15 03:05:36;;;;;;;15.10;11.52;;;;;;;;;;10239405;28;20122;-73
2023/05/15 03:10:32;;;;;;;13.38;11.35;;;;;;;;;;10215782;28;20056;-73
2023/05/15 03:15:28;;;;;;;15.57;10.88;;;;;;;;;;10210147;28;20116;-73
2023/05/15 03:20:25;;;;;;;12.30;10.95;;;;;;;;;;10198450;28;20053;-73
2023/05/15 03:25:21;;;;;;;15.68;12.32;;;;;;;;;;10216173;28;20133;-73
2023/05/15 03:30:18;;;;;;;14.27;11.77;;;;;;;;;;10238096;28;20046;-73
2023/05/15 03:35:14;;;;;;;15.15;12.02;;;;;;;;;;10251883;28;20128;-73
2023/05/15 03:40:11;;;;;;;17.05;12.15;;;;;;;;;;10278290;28;20102;-72
2023/05/15 03:45:08;;;;;;;13.27;11.85;;;;;;;;;;10255895;28;20525;-73
2023/05/15 03:50:05;;;;;;;15.13;13.52;;;;;;;;;;10276791;28;20056;-73
2023/05/15 03:55:01;;;;;;;14.02;12.60;;;;;;;;;;10253728;28;20107;-73
2023/05/15 03:59:57;;;;;;;17.60;13.80;;;;;;;;;;10260757;28;20058;-73
2023/05/15 04:04:54;;;;;;;19.48;13.93;;;;;;;;;;10225520;28;20103;-73
2023/05/15 04:09:50;;;;;;;16.52;13.93;;;;;;;;;;10238554;28;20052;-73
2023/05/15 04:14:46;;;;;;;15.25;13.70;;;;;;;;;;10223425;28;20052;-73
2023/05/15 04:19:44;;;;;;;19.33;15.23;;;;;;;;;;10223062;28;20041;-73
2023/05/15 04:24:41;;;;;;;15.98;13.77;;;;;;;;;;10236036;28;20529;-73
2023/05/15 04:29:37;;;;;;;15.00;13.32;;;;;;;;;;10220955;28;20046;-73
2023/05/15 04:34:34;;;;;;;15.80;14.15;;;;;;;;;;10218916;28;20060;-73
2023/05/15 04:39:30;;;;;;;16.67;14.98;;;;;;;;;;10216512;28;20069;-73
2023/05/15 04:44:26;;;;;;;17.70;15.00;;;;;;;;;;10216805;28;20044;-72
2023/05/15 04:49:23;;;;;;;17.08;15.32;;;;;;;;;;10207360;28;20046;-73
2023/05/15 04:54:22;;;;;;;16.48;14.82;;;;;;;;;;10214396;28;20055;-72
2023/05/15 04:59:18;;;;;;;18.13;15.38;;;;;;;;;;10237884;28;20065;-73
2023/05/15 05:04:18;;;;;;;16.95;15.05;;;;;;;;;;10232305;28;20443;-73
2023/05/15 05:09:15;;;;;;;15.38;13.82;;;;;;;;;;10233144;28;20115;-73
2023/05/15 05:14:11;;;;;;;16.42;14.73;;;;;;;;;;10228760;28;20053;-73
2023/05/15 05:19:08;;;;;;;16.17;14.35;;;;;;;;;;10273724;28;20045;-73
2023/05/15 05:24:04;;;;;;;17.08;14.02;;;;;;;;;;10235113;28;20052;-73
2023/05/15 05:29:01;;;;;;;16.67;15.00;;;;;;;;;;10273348;28;20086;-73
2023/05/15 05:33:57;;;;;;;13.60;12.18;;;;;;;;;;10218153;28;20056;-73
2023/05/15 05:38:53;;;;;;;14.43;12.93;;;;;;;;;;10247430;28;20120;-72
2023/05/15 05:43:49;;;;;;;12.52;11.23;;;;;;;;;;10204970;28;20067;-73
2023/05/15 05:48:46;;;;;;;15.52;12.68;;;;;;;;;;10218520;28;20078;-73
2023/05/15 05:53:45;;;;;;;12.85;11.55;;;;;;;;;;10201641;28;20067;-73
2023/05/15 05:58:44;;;;;;;13.98;12.55;;;;;;;;;;10230855;28;20053;-73
2023/05/15 06:03:41;;;;;;;12.73;11.48;;;;;;;;;;10226279;28;20518;-73
2023/05/15 06:08:38;;;;;;;11.70;10.60;;;;;;;;;;10272389;28;20566;-73
2023/05/15 06:13:34;;;;;;;12.45;10.10;;;;;;;;;;10237805;28;20077;-73
2023/05/15 06:18:31;;;;;;;12.23;11.00;;;;;;;;;;10272289;28;20063;-73
2023/05/15 06:23:27;;;;;;;11.20;10.10;;;;;;;;;;10232078;28;20067;-74
2023/05/15 06:28:23;;;;;;;10.65;9.75;;;;;;;;;;10272197;28;20045;-73
2023/05/15 06:33:21;;;;;;;10.10;9.20;;;;;;;;;;10217552;28;20046;-73
2023/05/15 06:38:17;;;;;;;11.32;10.23;;;;;;;;;;10272082;28;20059;-73
2023/05/15 06:43:13;;;;;;;9.85;8.77;;;;;;;;;;10209957;28;20462;-74
2023/05/15 06:48:09;;;;;;;10.88;9.35;;;;;;;;;;10249710;28;20052;-73
2023/05/15 06:53:06;;;;;;;10.15;9.13;;;;;;;;;;10198707;28;20057;-73
2023/05/15 06:58:02;;;;;;;9.00;8.20;;;;;;;;;;10222980;28;20053;-73
2023/05/15 07:02:58;;;;;;;11.13;8.07;;;;;;;;;;10197708;28;20045;-73
2023/05/15 07:07:54;;;;;;;9.38;8.57;;;;;;;;;;10214218;28;20042;-73
2023/05/15 07:12:51;;;;;;;8.88;8.00;;;;;;;;;;10197773;28;20049;-73
2023/05/15 07:17:47;;;;;;;9.40;8.45;;;;;;;;;;10274900;28;20144;-73
2023/05/15 07:22:43;;;;;;;9.13;8.20;;;;;;;;;;10277061;28;20044;-73
2023/05/15 07:27:51;;;;;;;7.13;6.43;;;;;;;;;;10275782;28;20049;-73
2023/05/15 07:32:48;;;;;;;7.80;7.05;;;;;;;;;;10255098;28;20046;-73
2023/05/15 07:37:45;;;;;;;8.15;7.00;;;;;;;;;;10274216;28;20052;-74
2023/05/15 07:42:44;;;;;;;7.72;6.53;;;;;;;;;;10243758;28;20077;-73
2023/05/15 07:47:44;;;;;;;10.80;7.53;;;;;;;;;;10272455;28;20125;-75
2023/05/15 07:52:41;;;;;;;7.68;6.45;;;;;;;;;;10230391;28;20527;-74
2023/05/15 07:57:39;;;;;;;7.50;6.80;;;;;;;;;;10271012;28;20048;-73
2023/05/15 08:02:35;;;;;;;7.35;6.70;;;;;;;;;;10238047;28;20172;-73
2023/05/15 08:07:32;;;;;;;6.72;6.03;;;;;;;;;;10261928;28;20046;-74
2023/05/15 08:12:28;;;;;;;8.00;6.80;;;;;;;;;;10195832;28;20038;-73
2023/05/15 08:17:25;;;;;;;6.70;6.10;;;;;;;;;;10224486;28;20419;-73
2023/05/15 08:22:21;;;;;;;6.85;6.15;;;;;;;;;;10210815;28;20440;-73
2023/05/15 08:27:17;;;;;;;7.50;6.55;;;;;;;;;;10223011;28;20077;-73
2023/05/15 08:32:14;;;;;;;7.35;5.93;;;;;;;;;;10195186;28;20053;-73
2023/05/15 08:37:10;;;;;;;6.75;6.05;;;;;;;;;;10214620;28;20052;-73
2023/05/15 08:42:09;;;;;;;7.75;6.13;;;;;;;;;;10194299;28;20130;-73
2023/05/15 08:47:05;;;;;;;6.32;5.82;;;;;;;;;;10210005;28;20084;-73
2023/05/15 08:52:03;;;;;;;7.78;6.47;;;;;;;;;;10193679;28;20432;-73
2023/05/15 08:56:59;;;;;;;7.82;6.60;;;;;;;;;;10258058;28;20076;-73
2023/05/15 09:01:56;;;;;;;6.85;6.18;;;;;;;;;;10239823;28;20056;-73
2023/05/15 09:06:57;;;;;;;9.52;7.05;;;;;;;;;;10255548;28;20072;-73
2023/05/15 09:11:54;;;;;;;7.50;6.80;;;;;;;;;;10221455;28;20637;-73
2023/05/15 09:16:52;;;;;;;7.07;6.38;;;;;;;;;;10247527;28;20057;-73
2023/05/15 09:21:48;;;;;;;9.18;5.97;;;;;;;;;;10193298;28;20066;-73
2023/05/15 09:26:45;;;;;;;8.15;6.13;;;;;;;;;;10241378;28;20046;-73
2023/05/15 09:31:42;;;;;;;6.50;5.82;;;;;;;;;;10193634;28;20053;-73
2023/05/15 09:36:42;;;;;;;6.80;6.15;;;;;;;;;;10224724;28;20042;-72
2023/05/15 09:41:40;;;;;;;7.40;6.15;;;;;;;;;;10193031;28;20503;-73
2023/05/15 09:46:37;;;;;;;6.88;6.20;;;;;;;;;;10250980;28;20494;-73
2023/05/15 09:51:36;;;;;;;6.68;6.07;;;;;;;;;;10269570;28;20049;-73
2023/05/15 09:56:32;;;;;;;6.50;5.90;;;;;;;;;;10248706;28;20041;-73
2023/05/15 10:01:29;;;;;;;6.95;6.35;;;;;;;;;;10231980;28;20455;-73
2023/05/15 10:06:25;;;;;;;7.45;6.22;;;;;;;;;;10247122;28;20053;-73
2023/05/15 10:11:23;;;;;;;8.50;7.57;;;;;;;;;;10214267;28;20559;-73
2023/05/15 10:16:21;;;;;;;8.68;7.35;;;;;;;;;;10245114;28;20045;-73
2023/05/15 10:21:18;;;;;;;7.40;6.80;;;;;;;;;;10210720;28;20046;-73
2023/05/15 10:26:20;;;;;;;9.05;7.35;;;;;;;;;;10239740;28;20125;-73
2023/05/15 10:31:20;;;;;;;7.60;7.00;;;;;;;;;;10199375;28;20418;-73
2023/05/15 10:36:18;;;;;;;8.60;7.80;;;;;;;;;;10237001;28;20042;-73
2023/05/15 10:41:16;;;;;;;8.25;7.57;;;;;;;;;;10199664;28;20491;-73
2023/05/15 10:46:16;;;;;;;8.85;8.05;;;;;;;;;;10214957;28;20050;-73
2023/05/15 10:51:23;;;;;;;9.30;8.05;;;;;;;;;;10198884;28;20560;-73
2023/05/15 10:56:20;;;;;;;8.85;7.97;;;;;;;;;;10202534;28;20068;-73
2023/05/15 11:01:27;;;;;;;7.68;6.97;;;;;;;;;;10213972;28;20053;-73
2023/05/15 11:06:27;;;;;;;7.63;6.93;;;;;;;;;;10265034;28;20453;-73
2023/05/15 11:11:47;;;;;;;8.18;7.30;;;;;;;;;;10261386;28;20116;-73
2023/05/15 11:16:52;;;;;;;7.80;7.10;;;;;;;;;;10251785;28;20755;-73
2023/05/15 11:21:58;;;;;;;7.95;6.82;;;;;;;;;;10233263;28;20137;-73
2023/05/15 11:26:58;;;;;;;8.32;7.53;;;;;;;;;;10260699;28;20041;-73
2023/05/15 11:31:55;;;;;;;7.38;6.68;;;;;;;;;;10231649;28;20046;-73
2023/05/15 11:36:51;;;;;;;8.63;7.32;;;;;;;;;;10254147;28;20538;-73
2023/05/15 11:41:48;;;;;;;9.35;7.75;;;;;;;;;;10197385;28;20054;-73
2023/05/15 11:46:45;;;;;;;8.50;7.72;;;;;;;;;;10244702;28;20061;-73
2023/05/15 11:51:42;;;;;;;7.20;6.50;;;;;;;;;;10197048;28;20137;-73
2023/05/15 11:56:44;;;;;;;7.22;6.63;;;;;;;;;;10236166;28;20053;-73
2023/05/15 12:01:41;;;;;;;7.65;6.90;;;;;;;;;;10196513;28;20041;-73
2023/05/15 12:06:41;;;;;;;7.55;6.90;;;;;;;;;;10196585;28;20049;-73
2023/05/15 12:11:38;;;;;;;8.38;7.68;;;;;;;;;;10195835;28;20057;-73
2023/05/15 12:16:34;;;;;;;7.90;7.10;;;;;;;;;;10252634;28;20047;-73
2023/05/15 12:21:31;;;;;;;8.25;7.40;;;;;;;;;;10273926;28;20051;-73
2023/05/15 12:26:28;;;;;;;11.57;7.68;;;;;;;;;;10250831;28;20048;-73
2023/05/15 12:31:24;;;;;;;8.63;7.57;;;;;;;;;;10266415;28;20038;-73
2023/05/15 12:36:20;;;;;;;7.53;6.70;;;;;;;;;;10248473;28;20045;-73
2023/05/15 12:41:19;;;;;;;8.30;7.50;;;;;;;;;;10254313;28;20046;-73
2023/05/15 12:46:20;;;;;;;8.40;7.70;;;;;;;;;;10245473;28;20784;-73
2023/05/15 12:51:17;;;;;;;8.50;7.43;;;;;;;;;;10248114;28;20045;-73
2023/05/15 12:56:16;;;;;;;8.73;7.93;;;;;;;;;;10245813;28;20055;-73
2023/05/15 13:01:13;;;;;;;11.98;9.48;;;;;;;;;;10226776;28;20530;-73
2023/05/15 13:06:10;;;;;;;19.35;10.75;;;;;;;;;;10218104;28;20052;-73
2023/05/15 13:11:09;;;;;;;14.32;10.40;;;;;;;;;;10194278;28;20076;-72
2023/05/15 13:16:16;;;;;;;12.35;10.95;;;;;;;;;;10217149;28;20562;-73
2023/05/15 13:21:12;;;;;;;12.63;11.32;;;;;;;;;;10193758;28;20480;-73
2023/05/15 13:26:08;;;;;;;12.55;10.82;;;;;;;;;;10192918;28;20073;-73
2023/05/15 13:31:05;;;;;;;15.32;11.98;;;;;;;;;;10193600;28;20423;-73
2023/05/15 13:36:01;;;;;;;14.45;11.15;;;;;;;;;;10240586;28;20422;-73
2023/05/15 13:40:58;;;;;;;10.13;9.13;;;;;;;;;;10271878;28;20045;-72
2023/05/15 13:45:54;;;;;;;12.20;10.90;;;;;;;;;;10254335;28;20059;-73
2023/05/15 13:50:50;;;;;;;11.77;10.57;;;;;;;;;;10264373;28;20124;-73
2023/05/15 13:55:47;;;;;;;14.48;11.52;;;;;;;;;;10237243;28;20055;-73
2023/05/15 14:00:44;;;;;;;15.73;12.52;;;;;;;;;;10260638;28;20124;-72
2023/05/15 14:05:40;;;;;;;15.05;13.52;;;;;;;;;;10243116;28;20136;-73
2023/05/15 14:10:37;;;;;;;14.95;13.40;;;;;;;;;;10251738;28;20526;-73
2023/05/15 14:15:33;;;;;;;16.63;13.95;;;;;;;;;;10241214;28;20509;-73
2023/05/15 14:20:32;;;;;;;17.13;13.65;;;;;;;;;;10233124;28;20582;-73
2023/05/15 14:25:28;;;;;;;16.92;13.77;;;;;;;;;;10239444;28;20053;-73
2023/05/15 14:30:24;;;;;;;15.18;13.68;;;;;;;;;;10216990;28;20041;-73
2023/05/15 14:35:21;;;;;;;16.00;14.25;;;;;;;;;;10215328;28;20049;-72
2023/05/15 14:40:17;;;;;;;17.35;13.68;;;;;;;;;;10199853;28;20045;-72
2023/05/15 14:45:16;;;;;;;15.77;14.07;;;;;;;;;;10211636;28;20160;-74
2023/05/15 14:50:12;;;;;;;16.85;14.43;;;;;;;;;;10237567;28;20682;-73
2023/05/15 14:55:08;;;;;;;17.02;13.27;;;;;;;;;;10245042;28;20421;-73
2023/05/15 15:00:05;;;;;;;15.30;13.80;;;;;;;;;;10272119;28;20380;-74
2023/05/15 15:05:03;;;;;;;14.05;12.65;;;;;;;;;;10245953;28;20556;-73
2023/05/15 15:09:59;;;;;;;26.42;14.35;;;;;;;;;;10246119;28;20475;-72
2023/05/15 15:14:58;;;;;;;19.35;14.05;;;;;;;;;;10227333;28;20136;-72
2023/05/15 15:19:55;;;;;;;18.38;13.13;;;;;;;;;;10227780;28;20046;-72
2023/05/15 15:24:51;;;;;;;16.48;12.65;;;;;;;;;;10226832;28;20076;-72
2023/05/15 15:29:47;;;;;;;19.52;14.60;;;;;;;;;;10225893;28;20112;-72
2023/05/15 15:34:44;;;;;;;18.52;14.02;;;;;;;;;;10223451;28;20083;-73
2023/05/15 15:39:40;;;;;;;18.17;12.88;;;;;;;;;;10209391;28;20423;-72
2023/05/15 15:44:36;;;;;;;15.25;11.50;;;;;;;;;;10221707;28;20095;-72
2023/05/15 15:49:32;;;;;;;13.43;12.02;;;;;;;;;;10211056;28;20052;-72
2023/05/15 15:54:29;;;;;;;14.85;11.50;;;;;;;;;;10218198;28;20045;-72
2023/05/15 15:59:25;;;;;;;14.18;10.82;;;;;;;;;;10195527;28;20165;-72
2023/05/15 16:04:22;;;;;;;11.68;10.23;;;;;;;;;;10232319;28;20107;-72
2023/05/15 16:09:19;;;;;;;12.00;9.93;;;;;;;;;;10274346;28;20123;-72
2023/05/15 16:14:15;;;;;;;12.43;9.57;;;;;;;;;;10219533;28;20071;-73
2023/05/15 16:19:12;;;;;;;10.95;9.68;;;;;;;;;;10275455;28;20469;-73
2023/05/15 16:24:10;;;;;;;12.98;9.93;;;;;;;;;;10212486;28;20041;-73
2023/05/15 16:29:07;;;;;;;9.98;9.07;;;;;;;;;;10252305;28;20042;-73
2023/05/15 16:34:03;;;;;;;11.40;9.25;;;;;;;;;;10210458;28;20044;-73
2023/05/15 16:39:01;;;;;;;11.50;9.35;;;;;;;;;;10226130;28;20053;-73
2023/05/15 16:43:57;;;;;;;10.38;9.20;;;;;;;;;;10208834;28;20095;-73
2023/05/15 16:48:53;;;;;;;11.38;10.18;;;;;;;;;;10205946;28;20138;-73
2023/05/15 16:53:51;;;;;;;11.35;9.52;;;;;;;;;;10211678;28;20038;-73
2023/05/15 16:58:49;;;;;;;11.02;9.63;;;;;;;;;;10192673;28;20096;-73
2023/05/15 17:03:45;;;;;;;11.95;10.13;;;;;;;;;;10206233;28;20166;-73
2023/05/15 17:08:44;;;;;;;10.95;9.57;;;;;;;;;;10274394;28;20068;-73
2023/05/15 17:13:40;;;;;;;11.05;8.43;;;;;;;;;;10224473;28;20537;-73
2023/05/15 17:18:38;;;;;;;11.45;8.75;;;;;;;;;;10272354;28;20128;-72
2023/05/15 17:23:35;;;;;;;10.63;8.65;;;;;;;;;;10206964;28;20041;-73
2023/05/15 17:28:31;;;;;;;10.13;8.40;;;;;;;;;;10245144;28;20096;-72
2023/05/15 17:33:27;;;;;;;13.63;8.52;;;;;;;;;;10197301;28;20542;-73
2023/05/15 17:38:24;;;;;;;11.52;8.20;;;;;;;;;;10217796;28;20072;-73
2023/05/15 17:43:20;;;;;;;12.95;8.32;;;;;;;;;;10197258;28;20065;-73
2023/05/15 17:48:17;;;;;;;13.80;8.20;;;;;;;;;;10194865;28;20570;-73
2023/05/15 17:53:14;;;;;;;8.82;7.22;;;;;;;;;;10194537;28;20053;-73
2023/05/15 17:58:10;;;;;;;11.27;7.40;;;;;;;;;;10271341;28;20068;-73
2023/05/15 18:03:06;;;;;;;11.35;8.43;;;;;;;;;;10214585;28;20129;-73
2023/05/15 18:08:03;;;;;;;11.45;7.70;;;;;;;;;;10262376;28;20507;-73
2023/05/15 18:12:59;;;;;;;9.40;7.68;;;;;;;;;;10191901;28;20050;-73
2023/05/15 18:17:56;;;;;;;8.30;7.20;;;;;;;;;;10233930;28;20057;-72
2023/05/15 18:22:52;;;;;;;9.18;7.55;;;;;;;;;;10191988;28;20046;-73
2023/05/15 18:27:48;;;;;;;8.80;7.07;;;;;;;;;;10214540;28;20056;-72
2023/05/15 18:32:45;;;;;;;13.68;7.75;;;;;;;;;;10191328;28;20088;-72
2023/05/15 18:37:41;;;;;;;13.73;6.50;;;;;;;;;;10201114;28;20104;-73
2023/05/15 18:42:37;;;;;;;14.73;7.50;;;;;;;;;;10191514;28;20052;-72
2023/05/15 18:47:34;;;;;;;12.25;7.57;;;;;;;;;;10201388;28;20526;-73
2023/05/15 18:52:30;;;;;;;8.30;7.50;;;;;;;;;;10198169;28;20054;-72
2023/05/15 18:57:26;;;;;;;11.50;7.93;;;;;;;;;;10269843;28;20045;-73
2023/05/15 19:02:23;;;;;;;8.85;7.60;;;;;;;;;;10260305;28;20115;-72
2023/05/15 19:07:21;;;;;;;9.07;8.18;;;;;;;;;;10271352;28;20049;-73
2023/05/15 19:12:17;;;;;;;14.73;8.50;;;;;;;;;;10232227;28;20077;-72
2023/05/15 19:17:14;;;;;;;12.95;8.80;;;;;;;;;;10265120;28;20410;-72
2023/05/15 19:22:13;;;;;;;9.27;7.95;;;;;;;;;;10206617;28;20145;-72
2023/05/15 19:27:09;;;;;;;10.50;8.55;;;;;;;;;;10263553;28;20136;-71
2023/05/15 19:32:06;;;;;;;11.63;8.77;;;;;;;;;;10204537;28;20445;-71
2023/05/15 19:37:02;;;;;;;11.18;8.02;;;;;;;;;;10267944;28;20040;-72
2023/05/15 19:41:58;;;;;;;9.85;8.20;;;;;;;;;;10196907;28;20050;-71
2023/05/15 19:46:54;;;;;;;9.18;8.30;;;;;;;;;;10252211;28;20077;-72
2023/05/15 19:51:51;;;;;;;10.82;8.65;;;;;;;;;;10196213;28;20265;-72
2023/05/15 19:56:47;;;;;;;11.93;9.07;;;;;;;;;;10225601;28;20050;-72
2023/05/15 20:01:43;;;;;;;12.93;9.52;;;;;;;;;;10195460;28;20482;-71
2023/05/15 20:06:42;;;;;;;11.52;9.60;;;;;;;;;;10206689;28;20483;-72
2023/05/15 20:11:38;;;;;;;13.98;9.73;;;;;;;;;;10193628;28;20050;-72
2023/05/15 20:16:35;;;;;;;14.10;9.60;;;;;;;;;;10251956;28;20081;-72
2023/05/15 20:21:32;;;;;;;12.98;9.05;;;;;;;;;;10244283;28;20050;-71
2023/05/15 20:26:28;;;;;;;14.95;10.63;;;;;;;;;;10250743;28;20045;-72
2023/05/15 20:31:24;;;;;;;14.15;10.07;;;;;;;;;;10225256;28;20128;-72
2023/05/15 20:36:21;;;;;;;13.98;11.02;;;;;;;;;;10232243;28;20049;-72
2023/05/15 20:41:18;;;;;;;13.00;11.63;;;;;;;;;;10234337;28;20128;-72
2023/05/15 20:46:18;;;;;;;14.07;11.45;;;;;;;;;;10248574;28;20046;-72
2023/05/15 20:51:14;;;;;;;13.80;10.60;;;;;;;;;;10193865;28;20123;-72
2023/05/15 20:56:11;;;;;;;13.68;10.88;;;;;;;;;;10216585;28;20504;-73
2023/05/15 21:01:07;;;;;;;13.32;9.90;;;;;;;;;;10208992;28;20046;-72
2023/05/15 21:06:03;;;;;;;12.88;9.73;;;;;;;;;;10241825;28;20510;-72
2023/05/15 21:11:00;;;;;;;13.18;9.45;;;;;;;;;;10270589;28;20100;-72
2023/05/15 21:15:56;;;;;;;13.65;10.27;;;;;;;;;;10240618;28;20045;-72
2023/05/15 21:20:52;;;;;;;11.75;9.38;;;;;;;;;;10267093;28;20072;-72
2023/05/15 21:25:48;;;;;;;10.30;8.02;;;;;;;;;;10219609;28;20128;-72
2023/05/15 21:30:45;;;;;;;13.23;9.48;;;;;;;;;;10216204;28;20054;-72
2023/05/15 21:35:41;;;;;;;12.77;8.50;;;;;;;;;;10249913;28;20053;-72
2023/05/15 21:40:37;;;;;;;13.88;8.60;;;;;;;;;;10227530;28;20079;-72
2023/05/15 21:45:34;;;;;;;13.07;10.15;;;;;;;;;;10233142;28;20072;-72
2023/05/15 21:50:30;;;;;;;14.48;10.48;;;;;;;;;;10210997;28;20072;-72
2023/05/15 21:55:26;;;;;;;12.70;10.68;;;;;;;;;;10229518;28;20045;-72
2023/05/15 22:00:22;;;;;;;13.45;10.15;;;;;;;;;;10192281;28;20168;-71
2023/05/15 22:05:19;;;;;;;13.80;11.30;;;;;;;;;;10192581;28;20054;-71
2023/05/15 22:10:16;;;;;;;11.75;10.50;;;;;;;;;;10191942;28;20081;-72
2023/05/15 22:15:13;;;;;;;16.85;10.35;;;;;;;;;;10226781;28;20076;-71
2023/05/15 22:20:10;;;;;;;11.32;8.38;;;;;;;;;;10274953;28;20091;-72
2023/05/15 22:25:07;;;;;;;13.98;8.38;;;;;;;;;;10233402;28;20041;-72
2023/05/15 22:30:03;;;;;;;9.55;8.23;;;;;;;;;;10268133;28;20069;-71
2023/05/15 22:35:03;;;;;;;11.93;8.98;;;;;;;;;;10230653;28;20060;-71
2023/05/15 22:39:59;;;;;;;12.10;9.02;;;;;;;;;;10243306;28;20084;-72
2023/05/15 22:44:56;;;;;;;12.40;9.55;;;;;;;;;;10229357;28;20048;-72
2023/05/15 22:49:53;;;;;;;10.80;9.68;;;;;;;;;;10211121;28;20459;-71
2023/05/15 22:54:49;;;;;;;13.50;10.27;;;;;;;;;;10226861;28;20040;-72
2023/05/15 22:59:45;;;;;;;11.75;10.05;;;;;;;;;;10200743;28;20554;-72
2023/05/15 23:04:42;;;;;;;12.15;10.85;;;;;;;;;;10200729;28;20121;-72
2023/05/15 23:09:41;;;;;;;10.07;9.02;;;;;;;;;;10197571;28;20467;-72
2023/05/15 23:14:37;;;;;;;12.68;8.90;;;;;;;;;;10222215;28;20116;-72
2023/05/15 23:19:33;;;;;;;9.18;8.20;;;;;;;;;;10259759;28;20069;-72
2023/05/15 23:24:30;;;;;;;10.85;8.73;;;;;;;;;;10213950;28;20475;-72
2023/05/15 23:29:26;;;;;;;15.93;8.75;;;;;;;;;;10213487;28;20567;-72
2023/05/15 23:34:22;;;;;;;15.32;9.00;;;;;;;;;;10217882;28;20570;-71
2023/05/15 23:39:19;;;;;;;15.07;8.43;;;;;;;;;;10224826;28;20081;-72
2023/05/15 23:44:15;;;;;;;10.70;8.30;;;;;;;;;;10214875;28;20073;-72
2023/05/15 23:49:11;;;;;;;10.07;7.90;;;;;;;;;;10195580;28;20053;-72
2023/05/15 23:54:07;;;;;;;9.00;8.10;;;;;;;;;;10196249;28;20137;-72
2023/05/15 23:59:04;;;;;;;12.50;8.30;;;;;;;;;;10195493;28;20046;-72
